Time;durP1;ratioP1;P1;durP2;ratioP2;P2;SDS_P1;SDS_P2;PMS_P1;PMS_P2;Temp;Humidity;BMP_temperature;BMP_pressure;BME280_temperature;BME280_humidity;BME280_pressure;Samples;Min_cycle;Max_cycle;Signal;HPM_P1;HPM_P2
2021/09/01 00:00:06;;;;;;;4.80;3.60;;;26.40;48.70;;;;;;5131401;27;20398;-79
2021/09/01 00:02:34;;;;;;;5.20;4.13;;;26.40;48.70;;;;;;5131629;27;20459;-79
2021/09/01 00:05:02;;;;;;;5.30;3.20;;;26.40;48.80;;;;;;5130788;27;20537;-81
2021/09/01 00:07:33;;;;;;;8.80;4.03;;;26.30;48.80;;;;;;5129362;27;20437;-79
2021/09/01 00:10:01;;;;;;;8.10;3.50;;;26.30;48.80;;;;;;5129716;27;20462;-80
2021/09/01 00:12:29;;;;;;;6.40;3.73;;;26.30;48.90;;;;;;5126891;27;20542;-80
2021/09/01 00:14:57;;;;;;;7.27;3.77;;;26.20;48.90;;;;;;5126966;27;20413;-80
2021/09/01 00:17:26;;;;;;;6.77;3.67;;;26.20;49.00;;;;;;5126096;27;20497;-80
2021/09/01 00:19:54;;;;;;;6.87;3.63;;;26.20;49.00;;;;;;5109783;27;20445;-80
2021/09/01 00:22:22;;;;;;;5.30;3.63;;;26.20;49.10;;;;;;5107689;28;20452;-79
2021/09/01 00:24:51;;;;;;;4.10;3.10;;;26.20;49.00;;;;;;5106811;28;20501;-80
2021/09/01 00:27:20;;;;;;;5.60;3.60;;;26.20;49.10;;;;;;5106971;28;20407;-80
2021/09/01 00:29:48;;;;;;;5.13;3.60;;;26.10;49.10;;;;;;5107060;28;20415;-82
2021/09/01 00:32:16;;;;;;;5.43;3.37;;;26.10;49.20;;;;;;5106192;28;20406;-79
2021/09/01 00:34:44;;;;;;;4.13;3.20;;;26.10;49.30;;;;;;5106915;28;20443;-79
2021/09/01 00:37:12;;;;;;;4.63;3.43;;;26.10;49.40;;;;;;5106679;28;20496;-80
2021/09/01 00:39:40;;;;;;;5.50;3.63;;;26.10;49.50;;;;;;5106609;28;20459;-80
2021/09/01 00:42:10;;;;;;;8.90;3.20;;;26.00;49.40;;;;;;5106202;28;20471;-80
2021/09/01 00:44:40;;;;;;;6.00;3.50;;;26.00;49.50;;;;;;5106413;28;20422;-80
2021/09/01 00:47:09;;;;;;;5.10;3.00;;;26.00;49.60;;;;;;5107851;28;20432;-80
2021/09/01 00:49:37;;;;;;;6.23;3.43;;;25.90;49.60;;;;;;5106278;28;20514;-79
2021/09/01 00:52:06;;;;;;;5.07;3.13;;;25.90;49.60;;;;;;5105851;28;20435;-79
2021/09/01 00:54:34;;;;;;;6.30;3.47;;;25.90;49.70;;;;;;5105841;28;20411;-79
2021/09/01 00:57:03;;;;;;;5.30;3.10;;;25.90;49.70;;;;;;5105886;28;20449;-79
2021/09/01 00:59:34;;;;;;;4.00;3.50;;;25.80;49.90;;;;;;5106645;28;20443;-81
2021/09/01 01:02:03;;;;;;;7.83;3.27;;;25.80;49.90;;;;;;5106521;28;20414;-78
2021/09/01 01:04:33;;;;;;;5.27;3.70;;;25.70;49.90;;;;;;5105742;28;20429;-79
2021/09/01 01:07:02;;;;;;;6.37;3.50;;;25.70;49.90;;;;;;5105990;28;20419;-79
2021/09/01 01:09:30;;;;;;;4.20;3.20;;;25.70;49.90;;;;;;5105611;28;20414;-80
2021/09/01 01:12:02;;;;;;;4.60;3.00;;;25.70;50.00;;;;;;5106019;28;20507;-78
2021/09/01 01:14:33;;;;;;;5.37;3.67;;;25.70;50.10;;;;;;5106412;28;20447;-79
2021/09/01 01:17:01;;;;;;;6.40;3.70;;;25.70;50.20;;;;;;5105133;28;20499;-80
2021/09/01 01:19:29;;;;;;;5.33;3.20;;;25.60;50.20;;;;;;5119154;27;20473;-76
2021/09/01 01:21:57;;;;;;;3.87;3.40;;;25.60;50.20;;;;;;5129328;27;20503;-77
2021/09/01 01:24:41;;;;;;;4.10;3.37;;;25.60;50.30;;;;;;5125189;27;20425;-78
2021/09/01 01:27:22;;;;;;;5.60;3.60;;;25.50;50.30;;;;;;5124891;27;20513;-78
2021/09/01 01:29:51;;;;;;;5.70;3.23;;;25.60;50.40;;;;;;5124908;27;20413;-78
2021/09/01 01:32:19;;;;;;;10.33;3.67;;;25.50;50.30;;;;;;5125238;27;20418;-79
2021/09/01 01:34:47;;;;;;;6.97;3.17;;;25.50;50.30;;;;;;5125356;27;20422;-79
2021/09/01 01:37:15;;;;;;;8.93;3.20;;;25.50;50.40;;;;;;5125081;27;20486;-79
2021/09/01 01:39:43;;;;;;;7.13;3.30;;;25.40;50.40;;;;;;5124762;27;20435;-80
2021/09/01 01:42:12;;;;;;;4.37;3.20;;;25.40;50.50;;;;;;5125264;27;20435;-80
2021/09/01 01:44:41;;;;;;;5.10;3.10;;;25.40;50.50;;;;;;5125496;27;20428;-80
2021/09/01 01:47:09;;;;;;;6.10;3.73;;;25.40;50.60;;;;;;5125975;27;20487;-80
2021/09/01 01:49:39;;;;;;;5.93;3.30;;;25.30;50.70;;;;;;5126320;27;20451;-80
2021/09/01 01:52:08;;;;;;;6.13;3.00;;;25.30;50.70;;;;;;5126109;27;20418;-80
2021/09/01 01:54:36;;;;;;;4.93;3.50;;;25.30;50.70;;;;;;5125673;27;20463;-79
2021/09/01 01:57:04;;;;;;;4.97;3.50;;;25.20;50.70;;;;;;5125675;27;20509;-79
2021/09/01 01:59:35;;;;;;;4.80;3.13;;;25.20;50.80;;;;;;5124958;27;20449;-79
2021/09/01 02:02:04;;;;;;;3.77;3.17;;;25.20;50.80;;;;;;5125511;27;20432;-79
2021/09/01 02:04:33;;;;;;;5.77;3.90;;;25.20;51.00;;;;;;5125625;27;20421;-79
2021/09/01 02:07:01;;;;;;;4.37;3.43;;;25.20;50.80;;;;;;5125369;27;20417;-79
2021/09/01 02:09:29;;;;;;;5.37;3.00;;;25.20;50.90;;;;;;5125586;27;20482;-79
2021/09/01 02:11:58;;;;;;;5.07;3.13;;;25.20;50.90;;;;;;5125436;27;20466;-79
2021/09/01 02:14:26;;;;;;;6.20;3.67;;;25.10;51.00;;;;;;5125696;27;20431;-79
2021/09/01 02:16:54;;;;;;;4.70;3.27;;;25.10;51.00;;;;;;5124827;27;20523;-80
2021/09/01 02:19:23;;;;;;;4.10;2.70;;;25.10;51.00;;;;;;5112910;27;20446;-80
2021/09/01 02:21:51;;;;;;;5.20;3.60;;;25.10;51.10;;;;;;5104877;28;20406;-80
2021/09/01 02:24:19;;;;;;;7.73;3.53;;;25.10;51.10;;;;;;5104826;28;20414;-80
2021/09/01 02:26:47;;;;;;;4.07;3.67;;;25.00;51.10;;;;;;5105005;28;20438;-80
2021/09/01 02:29:15;;;;;;;4.10;3.13;;;25.00;51.10;;;;;;5111273;27;20445;-80
2021/09/01 02:31:43;;;;;;;2.80;2.60;;;25.00;51.20;;;;;;5123694;27;20439;-80
2021/09/01 02:34:11;;;;;;;4.80;3.00;;;25.00;51.20;;;;;;5125493;27;20432;-79
2021/09/01 02:36:41;;;;;;;5.63;3.10;;;25.00;51.20;;;;;;5127846;27;20502;-79
2021/09/01 02:39:09;;;;;;;5.93;3.10;;;24.90;51.20;;;;;;5123900;28;20418;-80
2021/09/01 02:41:41;;;;;;;7.20;3.53;;;24.90;51.20;;;;;;5122614;28;20453;-80
2021/09/01 02:44:09;;;;;;;4.03;2.60;;;24.90;51.20;;;;;;5128759;28;20410;-79
2021/09/01 02:46:37;;;;;;;3.97;2.90;;;24.80;51.30;;;;;;5129217;28;20413;-81
2021/09/01 02:49:04;;;;;;;4.53;3.10;;;24.80;51.30;;;;;;5125486;28;20443;-81
2021/09/01 02:51:34;;;;;;;5.10;2.83;;;24.80;51.40;;;;;;5124866;28;20479;-81
2021/09/01 02:54:04;;;;;;;3.80;3.20;;;24.80;51.30;;;;;;5124625;28;20489;-82
2021/09/01 02:56:32;;;;;;;3.80;2.70;;;24.70;51.40;;;;;;5124323;28;20398;-82
2021/09/01 02:59:01;;;;;;;4.97;3.20;;;24.80;51.50;;;;;;5124422;28;20427;-81
2021/09/01 03:01:29;;;;;;;4.47;3.07;;;24.70;51.40;;;;;;5124458;28;20470;-82
2021/09/01 03:03:57;;;;;;;5.47;3.20;;;24.70;51.50;;;;;;5124846;28;20394;-82
2021/09/01 03:06:25;;;;;;;5.67;3.27;;;24.70;51.50;;;;;;5124696;28;20435;-80
2021/09/01 03:08:53;;;;;;;4.87;3.37;;;24.70;51.60;;;;;;5125102;28;20463;-81
2021/09/01 03:11:23;;;;;;;3.97;3.30;;;24.70;51.50;;;;;;5126145;27;20439;-81
2021/09/01 03:13:51;;;;;;;3.30;3.00;;;24.70;51.50;;;;;;5129058;27;20405;-80
2021/09/01 03:16:19;;;;;;;3.70;2.97;;;24.70;51.50;;;;;;5128969;27;20462;-80
2021/09/01 03:18:47;;;;;;;3.30;3.00;;;24.70;51.50;;;;;;5128526;27;20491;-81
2021/09/01 03:21:17;;;;;;;5.30;2.83;;;24.70;51.50;;;;;;5128358;27;20416;-80
2021/09/01 03:23:45;;;;;;;5.43;3.50;;;24.60;51.60;;;;;;5128768;27;20492;-80
2021/09/01 03:26:13;;;;;;;6.17;3.17;;;24.60;51.50;;;;;;5128818;27;20454;-81
2021/09/01 03:28:42;;;;;;;5.47;3.47;;;24.60;51.50;;;;;;5128067;27;20437;-81
2021/09/01 03:31:10;;;;;;;5.30;2.97;;;24.60;51.60;;;;;;5128667;27;20498;-81
2021/09/01 03:33:39;;;;;;;3.73;2.93;;;24.60;51.60;;;;;;5128053;27;20397;-81
2021/09/01 03:36:07;;;;;;;3.23;2.87;;;24.60;51.60;;;;;;5128214;27;20454;-80
2021/09/01 03:38:35;;;;;;;4.90;3.30;;;24.60;51.70;;;;;;5127911;27;20477;-80
2021/09/01 03:41:03;;;;;;;3.43;2.90;;;24.50;51.60;;;;;;5127984;27;20466;-81
2021/09/01 03:43:34;;;;;;;3.53;3.20;;;24.60;51.80;;;;;;5128468;27;20487;-80
2021/09/01 03:46:04;;;;;;;5.27;3.20;;;24.50;51.80;;;;;;5128320;27;20443;-79
2021/09/01 03:48:32;;;;;;;4.70;3.10;;;24.50;51.70;;;;;;5128085;27;20497;-80
2021/09/01 03:51:00;;;;;;;4.93;3.20;;;24.50;51.80;;;;;;5127938;27;20499;-80
2021/09/01 03:53:28;;;;;;;5.37;3.30;;;24.50;51.80;;;;;;5127917;27;20406;-80
2021/09/01 03:55:56;;;;;;;5.97;2.67;;;24.50;51.90;;;;;;5127721;27;20490;-81
2021/09/01 03:58:24;;;;;;;8.77;3.10;;;24.50;51.90;;;;;;5127821;27;20472;-81
2021/09/01 04:00:52;;;;;;;4.03;2.83;;;24.50;52.00;;;;;;5120913;27;20516;-80
2021/09/01 04:03:21;;;;;;;4.30;2.97;;;24.40;51.90;;;;;;5117121;27;20407;-80
2021/09/01 04:05:49;;;;;;;4.23;3.40;;;24.40;51.90;;;;;;5118615;27;20422;-79
2021/09/01 04:08:18;;;;;;;4.40;3.10;;;24.40;52.00;;;;;;5126717;27;20451;-78
2021/09/01 04:10:52;;;;;;;4.67;3.10;;;24.40;52.00;;;;;;5126783;27;20394;-82
2021/09/01 04:13:20;;;;;;;4.60;2.73;;;24.40;51.90;;;;;;5127829;27;20444;-82
2021/09/01 04:15:48;;;;;;;3.80;2.80;;;24.50;51.90;;;;;;5127476;27;20413;-81
2021/09/01 04:18:16;;;;;;;4.50;2.90;;;24.50;51.90;;;;;;5127054;27;20467;-79
2021/09/01 04:20:46;;;;;;;6.67;2.83;;;24.50;51.80;;;;;;5127540;27;20429;-79
2021/09/01 04:23:14;;;;;;;6.03;3.77;;;24.40;51.90;;;;;;5127172;27;20431;-79
2021/09/01 04:25:42;;;;;;;3.00;2.80;;;24.50;51.80;;;;;;5127623;27;20530;-79
2021/09/01 04:28:10;;;;;;;3.57;3.07;;;24.50;51.80;;;;;;5127834;27;20475;-79
2021/09/01 04:30:38;;;;;;;2.90;2.70;;;24.50;51.90;;;;;;5127985;27;20425;-79
2021/09/01 04:33:09;;;;;;;3.00;2.80;;;24.40;51.90;;;;;;5127984;27;20443;-78
2021/09/01 04:35:37;;;;;;;4.97;3.10;;;24.40;52.00;;;;;;5127928;27;20453;-78
2021/09/01 04:38:09;;;;;;;4.47;2.57;;;24.30;52.00;;;;;;5127245;27;20463;-78
2021/09/01 04:40:37;;;;;;;6.43;3.53;;;24.30;52.00;;;;;;5127300;27;20422;-78
2021/09/01 04:43:05;;;;;;;2.80;2.60;;;24.40;52.00;;;;;;5127153;27;20412;-78
2021/09/01 04:45:33;;;;;;;4.27;3.10;;;24.40;52.00;;;;;;5126866;27;20464;-78
2021/09/01 04:48:01;;;;;;;3.67;2.70;;;24.30;51.90;;;;;;5127288;27;20500;-78
2021/09/01 04:50:30;;;;;;;4.03;2.80;;;24.30;52.00;;;;;;5127810;27;20467;-77
2021/09/01 04:52:58;;;;;;;3.20;2.80;;;24.30;52.00;;;;;;5127407;27;20402;-78
2021/09/01 04:55:28;;;;;;;4.07;3.37;;;24.40;52.10;;;;;;5126939;27;20488;-78
2021/09/01 04:57:56;;;;;;;3.20;2.90;;;24.30;52.00;;;;;;5126661;27;20405;-78
2021/09/01 05:00:24;;;;;;;5.33;3.40;;;24.30;52.00;;;;;;5126697;27;20451;-80
2021/09/01 05:02:52;;;;;;;3.60;2.80;;;24.40;52.10;;;;;;5126390;27;20488;-78
2021/09/01 05:05:20;;;;;;;6.03;2.90;;;24.30;52.00;;;;;;5114284;27;20417;-78
2021/09/01 05:07:50;;;;;;;2.80;2.43;;;24.40;52.10;;;;;;5106308;28;20456;-80
2021/09/01 05:10:18;;;;;;;4.83;3.33;;;24.30;52.10;;;;;;5106094;28;20432;-79
2021/09/01 05:12:49;;;;;;;4.43;3.00;;;24.30;52.10;;;;;;5106359;28;20500;-78
2021/09/01 05:15:19;;;;;;;4.90;3.10;;;24.30;52.10;;;;;;5106253;28;20440;-79
2021/09/01 05:17:47;;;;;;;3.47;2.50;;;24.30;52.00;;;;;;5105790;28;20443;-78
2021/09/01 05:20:16;;;;;;;3.97;2.80;;;24.40;52.20;;;;;;5105602;28;20452;-80
2021/09/01 05:22:46;;;;;;;5.67;3.10;;;24.40;52.00;;;;;;5106046;28;20410;-80
2021/09/01 05:25:15;;;;;;;3.87;2.97;;;24.40;52.10;;;;;;5105837;28;20505;-79
2021/09/01 05:27:44;;;;;;;4.73;3.23;;;24.40;52.20;;;;;;5105041;28;20402;-80
2021/09/01 05:30:15;;;;;;;4.70;2.77;;;24.40;52.10;;;;;;5105828;28;20475;-80
2021/09/01 05:32:44;;;;;;;2.90;2.70;;;24.40;52.10;;;;;;5105673;28;20403;-81
2021/09/01 05:35:12;;;;;;;4.63;3.23;;;24.40;52.10;;;;;;5105107;28;20413;-80
2021/09/01 05:37:41;;;;;;;2.93;2.67;;;24.40;52.20;;;;;;5105262;28;20414;-80
2021/09/01 05:40:10;;;;;;;3.10;2.80;;;24.40;51.90;;;;;;5105275;28;20518;-78
2021/09/01 05:42:38;;;;;;;3.47;2.70;;;24.50;52.00;;;;;;5105062;28;20440;-78
2021/09/01 05:45:07;;;;;;;4.53;3.13;;;24.50;52.10;;;;;;5111494;27;20426;-80
2021/09/01 05:47:36;;;;;;;4.00;2.90;;;24.50;52.00;;;;;;5117518;27;20403;-78
2021/09/01 05:50:05;;;;;;;3.03;2.73;;;24.50;52.00;;;;;;5117316;27;20414;-78
2021/09/01 05:52:33;;;;;;;3.13;2.83;;;24.60;52.00;;;;;;5125979;27;20427;-79
2021/09/01 05:55:09;;;;;;;3.27;2.67;;;24.60;51.90;;;;;;5125827;27;20435;-81
2021/09/01 05:57:38;;;;;;;5.23;2.93;;;24.60;51.80;;;;;;5125196;27;20441;-81
2021/09/01 06:00:09;;;;;;;3.67;2.87;;;24.60;51.90;;;;;;5124952;27;20442;-80
2021/09/01 06:02:41;;;;;;;3.93;2.67;;;24.60;51.70;;;;;;5118544;27;20405;-79
2021/09/01 06:05:10;;;;;;;7.33;2.87;;;24.60;51.80;;;;;;5122186;27;20459;-79
2021/09/01 06:07:40;;;;;;;3.20;2.90;;;24.70;51.80;;;;;;5109727;27;20423;-79
2021/09/01 06:10:09;;;;;;;3.27;2.97;;;24.70;51.80;;;;;;5125586;27;20409;-80
2021/09/01 06:12:39;;;;;;;2.40;2.30;;;24.70;51.70;;;;;;5126013;27;20538;-80
2021/09/01 06:15:08;;;;;;;3.30;3.00;;;24.70;51.70;;;;;;5125529;27;20439;-80
2021/09/01 06:17:36;;;;;;;3.57;3.27;;;24.70;51.60;;;;;;5125445;27;20418;-80
2021/09/01 06:20:06;;;;;;;4.00;2.90;;;24.80;51.60;;;;;;5125318;27;20458;-81
2021/09/01 06:22:34;;;;;;;6.40;3.27;;;24.80;51.70;;;;;;5125528;27;20402;-79
2021/09/01 06:25:03;;;;;;;3.80;3.10;;;24.80;51.70;;;;;;5125166;27;20446;-79
2021/09/01 06:27:31;;;;;;;3.70;3.10;;;24.90;51.70;;;;;;5125574;27;20558;-81
2021/09/01 06:29:59;;;;;;;3.30;3.03;;;24.90;51.60;;;;;;5125222;27;20455;-81
2021/09/01 06:32:27;;;;;;;3.70;3.20;;;25.00;51.40;;;;;;5121787;27;20429;-81
2021/09/01 06:35:15;;;;;;;4.97;3.57;;;25.00;51.30;;;;;;5125144;28;20474;-79
2021/09/01 06:37:44;;;;;;;5.63;3.43;;;25.10;51.40;;;;;;5122334;28;20427;-78
2021/09/01 06:40:19;;;;;;;3.70;3.40;;;25.10;51.50;;;;;;5124781;27;20433;-84
2021/09/01 06:43:11;;;;;;;4.90;3.23;;;25.10;51.50;;;;;;5124747;28;20417;-83
2021/09/01 06:46:11;;;;;;;4.40;3.00;;;25.20;51.20;;;;;;5118692;27;20394;-84
2021/09/01 06:48:55;;;;;;;3.70;3.00;;;25.20;51.20;;;;;;5127876;27;20431;-83
2021/09/01 06:54:21;;;;;;;4.17;3.70;;;25.30;51.30;;;;;;5128812;27;20440;-79
2021/09/01 06:56:52;;;;;;;6.83;3.20;;;25.40;51.10;;;;;;5128627;27;20484;-80
2021/09/01 06:59:20;;;;;;;3.60;3.00;;;25.40;51.00;;;;;;5129326;27;20477;-80
2021/09/01 07:01:48;;;;;;;6.13;3.13;;;25.40;51.10;;;;;;5129423;27;20501;-81
2021/09/01 07:04:17;;;;;;;10.83;4.33;;;25.20;52.50;;;;;;5129007;27;20443;-83
2021/09/01 07:06:46;;;;;;;12.90;5.07;;;24.10;53.70;;;;;;5128929;27;20413;-86
2021/09/01 07:09:14;;;;;;;20.63;5.60;;;23.00;56.40;;;;;;5128389;27;20405;-88
2021/09/01 07:11:42;;;;;;;18.50;5.00;;;23.30;56.50;;;;;;5126548;27;20419;-85
2021/09/01 07:14:13;;;;;;;25.17;5.37;;;23.60;54.80;;;;;;5123054;27;20495;-76
2021/09/01 07:16:40;;;;;;;13.50;4.87;;;23.90;57.80;;;;;;5127665;27;20499;-76
2021/09/01 07:19:08;;;;;;;15.67;4.73;;;24.70;57.00;;;;;;5124488;27;20516;-76
2021/09/01 07:21:36;;;;;;;21.57;5.30;;;25.20;56.40;;;;;;5121858;27;20441;-78
2021/09/01 07:24:06;;;;;;;18.27;5.00;;;25.60;56.00;;;;;;5125552;27;20441;-75
2021/09/01 07:26:34;;;;;;;31.67;5.07;;;25.90;55.60;;;;;;5128383;27;20474;-77
2021/09/01 07:29:02;;;;;;;14.10;4.50;;;26.00;55.10;;;;;;5123069;27;20426;-81
2021/09/01 07:31:31;;;;;;;15.83;5.20;;;26.20;54.40;;;;;;5126044;27;20426;-81
2021/09/01 07:33:59;;;;;;;13.80;4.73;;;26.30;53.80;;;;;;5126993;27;20421;-78
2021/09/01 07:36:27;;;;;;;16.53;4.57;;;26.30;53.50;;;;;;5127462;27;20398;-79
2021/09/01 07:38:55;;;;;;;13.40;4.13;;;26.30;53.30;;;;;;5128415;27;20446;-79
2021/09/01 07:41:25;;;;;;;10.00;4.20;;;26.30;53.10;;;;;;5128213;27;20527;-80
2021/09/01 07:43:53;;;;;;;10.10;4.00;;;26.40;52.80;;;;;;5127672;27;20505;-80
2021/09/01 07:46:21;;;;;;;14.47;4.97;;;26.40;52.60;;;;;;5128439;27;20452;-79
2021/09/01 07:48:50;;;;;;;11.33;4.60;;;26.40;52.40;;;;;;5127441;27;20507;-80
2021/09/01 07:51:19;;;;;;;14.23;5.30;;;26.50;52.90;;;;;;5127967;27;20442;-80
2021/09/01 07:53:47;;;;;;;11.23;4.60;;;26.60;52.30;;;;;;5127680;27;20435;-81
2021/09/01 07:56:15;;;;;;;9.87;4.60;;;26.60;51.90;;;;;;5127741;27;20427;-79
2021/09/01 07:58:44;;;;;;;14.87;4.60;;;26.70;51.70;;;;;;5126993;27;20515;-79
2021/09/01 08:01:12;;;;;;;14.20;4.90;;;26.70;51.50;;;;;;5127666;27;20466;-79
2021/09/01 08:03:41;;;;;;;11.23;4.57;;;26.80;51.30;;;;;;5127634;27;20431;-80
2021/09/01 08:06:09;;;;;;;7.43;4.30;;;26.90;51.20;;;;;;5127777;27;20398;-79
2021/09/01 08:08:37;;;;;;;5.93;3.60;;;26.90;50.90;;;;;;5127507;27;20430;-80
2021/09/01 08:11:05;;;;;;;20.40;4.70;;;27.00;50.70;;;;;;5127790;27;20448;-80
2021/09/01 08:13:33;;;;;;;7.30;4.37;;;27.00;50.50;;;;;;5127619;27;20466;-80
2021/09/01 08:16:02;;;;;;;7.97;4.63;;;27.10;50.40;;;;;;5127814;27;20513;-80
2021/09/01 08:18:30;;;;;;;7.73;4.10;;;27.10;50.20;;;;;;5127488;27;20438;-80
2021/09/01 08:20:58;;;;;;;7.03;4.60;;;27.00;50.10;;;;;;5127713;27;20466;-80
2021/09/01 08:23:26;;;;;;;8.27;4.10;;;27.00;50.20;;;;;;5127087;27;20409;-80
2021/09/01 08:25:54;;;;;;;8.73;3.83;;;27.00;50.10;;;;;;5127372;27;20542;-80
2021/09/01 08:28:22;;;;;;;6.20;3.90;;;27.10;50.00;;;;;;5126981;27;20512;-80
2021/09/01 08:30:50;;;;;;;4.13;3.40;;;27.00;49.90;;;;;;5127252;27;20435;-79
2021/09/01 08:33:20;;;;;;;10.13;4.00;;;27.10;49.90;;;;;;5127859;27;20416;-79
2021/09/01 08:35:48;;;;;;;6.40;3.73;;;27.20;49.80;;;;;;5127125;27;20470;-79
2021/09/01 08:38:16;;;;;;;8.40;4.30;;;27.10;49.60;;;;;;5127321;27;20437;-79
2021/09/01 08:40:45;;;;;;;8.00;3.73;;;27.20;49.50;;;;;;5127048;27;20506;-78
2021/09/01 08:43:14;;;;;;;4.60;3.57;;;27.30;49.40;;;;;;5126897;27;20431;-78
2021/09/01 08:45:42;;;;;;;6.70;3.97;;;27.30;49.40;;;;;;5126891;27;20531;-79
2021/09/01 08:48:10;;;;;;;10.07;4.10;;;27.30;49.20;;;;;;5126868;27;20413;-78
2021/09/01 08:50:40;;;;;;;5.70;4.00;;;27.30;49.20;;;;;;5126490;27;20478;-79
2021/09/01 08:53:08;;;;;;;5.27;3.93;;;27.30;49.20;;;;;;5126745;27;20453;-79
2021/09/01 08:55:36;;;;;;;7.00;3.93;;;27.40;49.20;;;;;;5127337;27;20467;-80
2021/09/01 08:58:04;;;;;;;6.67;3.90;;;27.30;49.00;;;;;;5126542;27;20435;-80
2021/09/01 09:00:32;;;;;;;5.60;4.20;;;27.40;49.20;;;;;;5126399;27;20466;-80
2021/09/01 09:03:01;;;;;;;6.90;4.07;;;27.40;48.90;;;;;;5126751;27;20424;-79
2021/09/01 09:05:33;;;;;;;5.50;3.37;;;27.40;49.00;;;;;;5126876;27;20393;-79
2021/09/01 09:08:03;;;;;;;5.37;3.73;;;27.50;49.00;;;;;;5126061;27;20439;-78
2021/09/01 09:10:33;;;;;;;6.50;4.27;;;27.50;49.00;;;;;;5125976;27;20394;-79
2021/09/01 09:13:03;;;;;;;4.97;3.43;;;27.50;48.80;;;;;;5126387;27;20459;-79
2021/09/01 09:15:31;;;;;;;4.90;3.60;;;27.60;48.60;;;;;;5126551;27;20474;-79
2021/09/01 09:18:00;;;;;;;5.50;3.10;;;27.70;48.60;;;;;;5126686;27;20447;-80
2021/09/01 09:20:29;;;;;;;6.00;3.70;;;27.80;48.40;;;;;;5127023;27;20452;-78
2021/09/01 09:23:02;;;;;;;7.00;3.80;;;28.00;48.50;;;;;;5126282;27;20467;-78
2021/09/01 09:25:32;;;;;;;6.77;3.50;;;28.10;48.20;;;;;;5126468;27;20413;-78
2021/09/01 09:28:00;;;;;;;6.77;4.47;;;28.20;48.00;;;;;;5126200;27;20417;-79
2021/09/01 09:30:40;;;;;;;5.20;3.37;;;28.40;47.90;;;;;;5126193;27;20445;-80
2021/09/01 09:33:13;;;;;;;4.00;3.60;;;28.80;48.10;;;;;;5126353;27;20470;-79
2021/09/01 09:35:56;;;;;;;4.60;3.17;;;29.20;47.60;;;;;;5126017;27;20459;-79
2021/09/01 09:38:38;;;;;;;4.10;3.40;;;29.60;47.00;;;;;;5126012;27;20463;-79
2021/09/01 09:41:09;;;;;;;8.20;4.10;;;29.80;46.60;;;;;;5126058;27;20506;-79
2021/09/01 09:43:37;;;;;;;4.80;3.50;;;29.80;46.30;;;;;;5126284;27;20470;-79
2021/09/01 09:46:08;;;;;;;3.80;3.37;;;29.90;46.20;;;;;;5126299;27;20462;-79
2021/09/01 09:48:36;;;;;;;8.17;3.30;;;29.90;46.00;;;;;;5126310;27;20423;-79
2021/09/01 09:51:06;;;;;;;4.23;3.30;;;30.00;46.10;;;;;;5125708;27;20435;-79
2021/09/01 09:53:36;;;;;;;5.90;3.40;;;30.00;46.00;;;;;;5125049;27;20406;-79
2021/09/01 09:56:05;;;;;;;4.90;3.17;;;30.30;46.40;;;;;;5125151;27;20428;-79
2021/09/01 09:58:37;;;;;;;3.87;3.37;;;30.50;46.10;;;;;;5125040;27;20503;-79
2021/09/01 10:01:09;;;;;;;3.10;2.80;;;31.00;46.00;;;;;;5125622;27;20466;-78
2021/09/01 10:03:37;;;;;;;3.20;3.00;;;31.30;45.30;;;;;;5121915;27;20436;-80
2021/09/01 10:06:09;;;;;;;3.80;3.13;;;31.30;45.20;;;;;;5120910;27;20580;-79
2021/09/01 10:08:37;;;;;;;5.27;3.30;;;31.40;45.20;;;;;;5123155;27;20482;-79
2021/09/01 10:11:07;;;;;;;3.23;2.93;;;31.60;45.20;;;;;;5125596;27;20431;-79
2021/09/01 10:13:38;;;;;;;4.03;2.97;;;32.00;45.10;;;;;;5125080;27;20434;-79
2021/09/01 10:16:15;;;;;;;3.67;3.37;;;32.40;44.60;;;;;;5125359;27;20466;-81
2021/09/01 10:18:43;;;;;;;3.30;3.00;;;32.80;44.10;;;;;;5124797;27;20445;-78
2021/09/01 10:21:11;;;;;;;3.67;3.37;;;33.20;43.70;;;;;;5124803;27;20519;-84
2021/09/01 10:23:40;;;;;;;3.33;3.03;;;33.40;43.40;;;;;;5124831;27;20427;-81
2021/09/01 10:26:21;;;;;;;3.40;3.10;;;33.40;43.00;;;;;;5125703;27;20443;-81
2021/09/01 10:28:50;;;;;;;2.60;2.40;;;33.60;43.20;;;;;;5124002;27;20439;-80
2021/09/01 10:31:24;;;;;;;3.83;3.17;;;33.90;43.10;;;;;;5125026;27;20495;-80
2021/09/01 10:33:53;;;;;;;4.07;2.40;;;34.30;42.60;;;;;;5121588;28;20459;-81
2021/09/01 10:36:51;;;;;;;2.80;2.60;;;34.70;42.30;;;;;;5124428;28;20503;-80
2021/09/01 10:39:40;;;;;;;3.77;3.10;;;35.10;41.80;;;;;;5121945;28;20488;-80
2021/09/01 10:42:33;;;;;;;3.23;2.90;;;35.50;41.30;;;;;;5119649;28;20534;-80
2021/09/01 10:45:04;;;;;;;2.67;2.47;;;35.90;40.80;;;;;;5122660;28;20443;-80
2021/09/01 10:48:15;;;;;;;2.53;2.43;;;36.20;40.20;;;;;;5124436;28;20444;-80
2021/09/01 10:50:45;;;;;;;3.73;2.80;;;36.10;39.90;;;;;;5123392;28;20510;-80
2021/09/01 10:53:17;;;;;;;4.10;2.50;;;36.10;40.10;;;;;;5124280;28;20451;-82
2021/09/01 10:55:58;;;;;;;3.37;2.80;;;36.30;40.00;;;;;;5124347;28;20499;-81
2021/09/01 10:58:49;;;;;;;3.00;2.80;;;36.60;39.80;;;;;;5123164;28;20427;-80
2021/09/01 11:01:22;;;;;;;3.43;2.40;;;36.90;39.40;;;;;;5117994;28;20471;-81
2021/09/01 11:03:52;;;;;;;2.40;2.20;;;37.30;39.20;;;;;;5123196;28;20442;-80
2021/09/01 11:06:23;;;;;;;2.40;2.27;;;37.60;38.80;;;;;;5124257;28;20512;-80
2021/09/01 11:09:10;;;;;;;2.43;2.27;;;37.90;38.40;;;;;;5123425;28;20480;-80
2021/09/01 11:11:43;;;;;;;4.13;2.33;;;38.40;37.90;;;;;;5121647;28;20466;-81
2021/09/01 11:14:13;;;;;;;2.37;2.20;;;38.60;37.10;;;;;;5124169;28;20488;-80
2021/09/01 11:16:42;;;;;;;2.90;2.63;;;38.50;36.90;;;;;;5124486;28;20474;-80
2021/09/01 11:19:11;;;;;;;2.60;2.30;;;39.00;36.30;;;;;;5119944;28;20440;-80
2021/09/01 11:21:43;;;;;;;2.37;2.17;;;40.10;36.70;;;;;;5103925;28;20562;-81
2021/09/01 11:24:11;;;;;;;3.23;2.50;;;40.90;35.50;;;;;;5104005;28;20439;-81
2021/09/01 11:26:40;;;;;;;2.40;2.23;;;41.40;32.90;;;;;;5103869;28;20475;-81
2021/09/01 11:29:09;;;;;;;2.10;2.00;;;42.60;33.40;;;;;;5103620;28;20452;-81
2021/09/01 11:31:43;;;;;;;3.47;2.23;;;43.70;31.60;;;;;;5104022;28;20428;-81
2021/09/01 11:34:13;;;;;;;4.00;2.30;;;44.10;29.40;;;;;;5107470;28;20546;-81
2021/09/01 11:36:41;;;;;;;2.97;2.23;;;43.30;29.70;;;;;;5107597;28;20435;-81
2021/09/01 11:39:10;;;;;;;2.70;2.50;;;42.10;30.60;;;;;;5107337;28;20428;-80
2021/09/01 11:41:38;;;;;;;2.27;2.10;;;41.20;31.80;;;;;;5107154;28;20575;-80
2021/09/01 11:44:07;;;;;;;2.80;2.60;;;40.90;32.70;;;;;;5107494;28;20476;-80
2021/09/01 11:46:36;;;;;;;2.00;1.90;;;42.40;33.00;;;;;;5107279;28;20435;-81
2021/09/01 11:49:05;;;;;;;2.07;1.97;;;44.20;30.90;;;;;;5107125;28;20451;-81
2021/09/01 11:51:35;;;;;;;1.70;1.63;;;45.70;29.40;;;;;;5107274;27;20508;-81
2021/09/01 11:54:05;;;;;;;1.77;1.77;;;45.20;28.60;;;;;;5107266;28;20514;-82
2021/09/01 11:56:50;;;;;;;2.73;1.80;;;46.50;28.50;;;;;;5106557;28;20431;-81
2021/09/01 11:59:18;;;;;;;1.73;1.63;;;46.00;27.40;;;;;;5107173;28;20463;-82
2021/09/01 12:01:47;;;;;;;2.37;1.70;;;46.70;28.20;;;;;;5107348;28;20431;-82
2021/09/01 12:04:16;;;;;;;2.30;1.87;;;47.90;27.00;;;;;;5107235;28;20420;-81
2021/09/01 12:07:06;;;;;;;1.60;1.50;;;48.50;25.90;;;;;;5107017;28;20431;-82
2021/09/01 12:09:35;;;;;;;1.87;1.47;;;48.30;25.40;;;;;;5106736;28;20499;-82
2021/09/01 12:12:04;;;;;;;2.70;1.92;;;47.80;26.00;;;;;;5107256;28;20463;-81
2021/09/01 12:14:33;;;;;;;1.40;1.30;;;48.50;26.00;;;;;;5106501;28;20488;-82
2021/09/01 12:17:16;;;;;;;1.63;1.63;;;49.40;25.10;;;;;;5106871;28;20187;-82
2021/09/01 12:19:48;;;;;;;1.35;1.35;;;50.30;24.30;;;;;;5106682;28;20257;-80
2021/09/01 12:22:33;;;;;;;1.20;1.20;;;50.90;23.70;;;;;;5106773;28;20234;-81
2021/09/01 12:25:06;;;;;;;1.30;1.20;;;51.30;23.60;;;;;;5106325;27;20235;-81
2021/09/01 12:27:34;;;;;;;1.75;1.65;;;49.30;23.30;;;;;;5107050;28;20203;-80
2021/09/01 12:30:03;;;;;;;1.70;1.70;;;47.60;24.50;;;;;;5106855;28;20512;-81
2021/09/01 12:32:31;;;;;;;1.50;1.50;;;47.60;26.40;;;;;;5105720;28;20527;-81
2021/09/01 12:35:02;;;;;;;1.48;1.38;;;48.90;25.20;;;;;;5106006;28;20427;-82
2021/09/01 12:37:34;;;;;;;1.50;1.50;;;49.90;24.30;;;;;;5106036;28;20199;-81
2021/09/01 12:40:03;;;;;;;1.60;1.50;;;50.60;23.80;;;;;;5106074;28;20203;-82
2021/09/01 12:42:32;;;;;;;1.35;1.35;;;51.20;23.00;;;;;;5105826;28;20266;-82
2021/09/01 12:45:01;;;;;;;1.30;1.30;;;51.70;22.90;;;;;;5105793;28;20198;-82
2021/09/01 12:47:30;;;;;;;1.35;1.33;;;52.10;22.40;;;;;;5105404;28;20213;-81
2021/09/01 12:49:59;;;;;;;1.20;1.20;;;52.50;22.50;;;;;;5105411;28;20256;-81
2021/09/01 12:52:28;;;;;;;1.20;1.20;;;52.90;21.90;;;;;;5105471;28;20287;-81
2021/09/01 12:54:58;;;;;;;1.10;1.10;;;53.20;21.70;;;;;;5105554;28;20206;-79
2021/09/01 12:57:31;;;;;;;0.82;0.82;;;53.40;21.40;;;;;;5105490;28;20199;-78
2021/09/01 12:59:59;;;;;;;1.38;1.38;;;53.50;21.40;;;;;;5126393;27;20247;-78
2021/09/01 13:02:27;;;;;;;1.05;1.05;;;53.80;21.00;;;;;;5125652;27;20219;-79